Terminal Aerodrome Forecast
Issued by NWS

Home | Current Version | Previous Version | Text Only | Print | Product List | Glossary On
Versions: 1 2 3 4 5 6 7 8 9 10 11 12 13 14 15 16 17 18 19 20 21 22 23 24 25
930
FTUS41 KPBZ 200533 CCA
TAFHLG
TAF COR
KHLG 200533Z 2006/2106 10004KT P6SM BKN250
     FM200800 11005KT P6SM OVC100
     FM201100 13006KT 5SM -RA OVC040
     FM201400 15007KT 2SM -RA OVC008
     FM202200 21007KT P6SM SCT008 OVC010=

USA.gov is the U.S. government's official web portal to all federal, state and local government web resources and services.